createdAt,value
2023-05-04T00:02:05.313Z,44.65
2023-05-04T00:04:31.946Z,44.40
2023-05-04T00:06:58.566Z,44.35
2023-05-04T00:09:25.936Z,45.02
2023-05-04T00:11:52.652Z,44.97
2023-05-04T00:14:19.214Z,45.17
2023-05-04T00:16:45.889Z,44.86
2023-05-04T00:19:12.522Z,44.66
2023-05-04T00:21:39.102Z,44.35
2023-05-04T00:24:05.809Z,45.26
2023-05-04T00:26:32.496Z,45.77
2023-05-04T00:28:59.064Z,45.19
2023-05-04T00:31:25.771Z,45.25
2023-05-04T00:33:52.617Z,44.96
2023-05-04T00:36:19.218Z,45.28
2023-05-04T00:38:51.262Z,45.44
2023-05-04T00:41:19.557Z,45.31
2023-05-04T00:43:54.515Z,45.78
2023-05-04T00:46:21.297Z,46.30
2023-05-04T00:48:49.782Z,46.06
2023-05-04T00:51:19.182Z,45.83
2023-05-04T00:56:12.676Z,45.65
2023-05-04T00:58:39.820Z,45.80
2023-05-04T01:01:06.427Z,46.52
2023-05-04T01:03:33.617Z,46.29
2023-05-04T01:06:26.460Z,45.62
2023-05-04T01:09:06.622Z,46.10
2023-05-04T01:12:21.909Z,46.59
2023-05-04T01:14:49.886Z,46.60
2023-05-04T01:17:16.496Z,46.22
2023-05-04T01:19:43.061Z,46.39
2023-05-04T01:22:09.630Z,46.49
2023-05-04T01:24:36.532Z,46.66
2023-05-04T01:27:08.565Z,46.45
2023-05-04T01:30:01.793Z,46.64
2023-05-04T01:32:31.217Z,46.77
2023-05-04T01:34:59.069Z,46.79
2023-05-04T01:37:26.206Z,46.12
2023-05-04T01:39:52.720Z,46.11
2023-05-04T01:42:19.308Z,46.18
2023-05-04T01:44:45.896Z,46.41
2023-05-04T01:47:12.419Z,46.24
2023-05-04T01:49:38.927Z,46.18
2023-05-04T01:52:05.476Z,46.25
2023-05-04T01:54:31.999Z,46.59
2023-05-04T01:56:58.620Z,46.41
2023-05-04T01:59:25.305Z,46.50
2023-05-04T02:01:52.024Z,46.43
2023-05-04T02:04:18.642Z,46.55
2023-05-04T02:06:45.292Z,46.81
2023-05-04T02:09:11.984Z,46.94
2023-05-04T02:11:38.705Z,46.65
2023-05-04T02:14:05.379Z,46.76
2023-05-04T02:16:32.193Z,46.77
2023-05-04T02:18:58.793Z,47.08
2023-05-04T02:21:25.533Z,47.25
2023-05-04T02:23:52.205Z,47.53
2023-05-04T02:26:18.779Z,47.50
2023-05-04T02:28:45.424Z,47.30
2023-05-04T02:31:12.060Z,47.72
2023-05-04T02:33:38.611Z,47.62
2023-05-04T02:36:05.542Z,47.51
2023-05-04T02:38:32.071Z,47.69
2023-05-04T02:40:58.669Z,47.13
2023-05-04T02:43:25.255Z,47.43
2023-05-04T02:45:52.790Z,47.50
2023-05-04T02:48:20.128Z,47.44
2023-05-04T02:50:46.714Z,47.17
2023-05-04T02:53:13.266Z,47.39
2023-05-04T02:55:39.895Z,47.54
2023-05-04T02:58:07.100Z,47.14
2023-05-04T03:00:33.744Z,47.42
2023-05-04T03:03:00.348Z,47.07
2023-05-04T03:05:27.014Z,46.75
2023-05-04T03:07:53.525Z,46.67
2023-05-04T03:10:20.173Z,46.75
2023-05-04T03:12:46.792Z,46.22
2023-05-04T03:15:13.454Z,46.87
2023-05-04T03:17:40.255Z,46.96
2023-05-04T03:20:07.938Z,47.41
2023-05-04T03:22:34.737Z,47.63
2023-05-04T03:25:01.517Z,47.87
2023-05-04T03:27:29.338Z,48.42
2023-05-04T03:29:56.695Z,48.02
2023-05-04T03:32:24.722Z,48.25
2023-05-04T03:34:51.312Z,48.11
2023-05-04T03:37:18.883Z,48.44
2023-05-04T03:39:45.556Z,48.50
2023-05-04T03:42:12.160Z,48.26
2023-05-04T03:44:38.674Z,48.33
2023-05-04T03:47:05.278Z,48.58
2023-05-04T03:49:32.440Z,48.22
2023-05-04T03:51:58.913Z,48.34
2023-05-04T03:54:26.270Z,48.41
2023-05-04T03:56:54.214Z,48.53
2023-05-04T03:59:20.911Z,48.58
2023-05-04T04:01:47.465Z,48.43
2023-05-04T04:04:14.149Z,48.29
2023-05-04T04:06:43.221Z,48.80
2023-05-04T04:09:10.320Z,48.48
2023-05-04T04:11:37.014Z,48.45
2023-05-04T04:14:03.588Z,48.57
2023-05-04T04:16:30.702Z,48.93
2023-05-04T04:18:58.026Z,49.34
2023-05-04T04:21:24.866Z,49.04
2023-05-04T04:23:51.410Z,49.18
2023-05-04T04:26:17.934Z,49.35
2023-05-04T04:28:50.226Z,49.74
2023-05-04T04:31:20.403Z,49.87
2023-05-04T04:33:47.373Z,50.48
2023-05-04T04:36:16.657Z,50.01
2023-05-04T04:38:43.350Z,50.36
2023-05-04T04:41:10.556Z,50.14
2023-05-04T04:43:37.171Z,50.74
2023-05-04T04:46:06.966Z,50.47
2023-05-04T04:48:33.704Z,50.89
2023-05-04T04:51:00.331Z,50.66
2023-05-04T04:53:27.130Z,50.94
2023-05-04T04:55:54.649Z,50.41
2023-05-04T04:58:21.917Z,50.66
2023-05-04T05:00:48.841Z,50.55
2023-05-04T05:03:15.961Z,50.61
2023-05-04T05:05:42.792Z,51.77
2023-05-04T05:08:09.420Z,51.39
2023-05-04T05:10:35.985Z,51.27
2023-05-04T05:13:02.614Z,50.99
2023-05-04T05:15:29.243Z,50.67
2023-05-04T05:17:56.522Z,50.94
2023-05-04T05:20:23.507Z,51.54
2023-05-04T05:22:51.514Z,51.87
2023-05-04T05:25:18.886Z,51.13
2023-05-04T05:27:45.809Z,51.07
2023-05-04T05:30:12.539Z,51.79
2023-05-04T05:32:39.108Z,51.62
2023-05-04T05:35:06.241Z,51.32
2023-05-04T05:37:32.804Z,51.73
2023-05-04T05:39:59.458Z,51.28
2023-05-04T05:42:26.021Z,51.65
2023-05-04T05:44:52.503Z,51.54
2023-05-04T05:47:19.314Z,51.03
2023-05-04T05:49:46.455Z,50.68
2023-05-04T05:52:13.294Z,51.66
2023-05-04T05:54:39.826Z,51.53
2023-05-04T05:57:06.445Z,50.83
2023-05-04T05:59:32.996Z,51.49
2023-05-04T06:02:00.109Z,51.49
2023-05-04T06:04:26.687Z,52.42
2023-05-04T06:06:53.316Z,52.50
2023-05-04T06:09:20.974Z,52.04
2023-05-04T06:11:47.645Z,51.73
2023-05-04T06:14:14.156Z,52.72
2023-05-04T06:16:41.292Z,51.96
2023-05-04T06:19:08.067Z,52.55
2023-05-04T06:21:34.860Z,51.59
2023-05-04T06:24:01.516Z,52.39
2023-05-04T06:26:28.297Z,53.29
2023-05-04T06:28:54.929Z,52.53
2023-05-04T06:31:21.710Z,52.30
2023-05-04T06:33:48.429Z,52.79
2023-05-04T06:36:14.969Z,52.29
2023-05-04T06:38:41.495Z,52.22
2023-05-04T06:41:08.162Z,51.95
2023-05-04T06:43:34.887Z,51.24
2023-05-04T06:46:04.868Z,50.82
2023-05-04T06:48:31.762Z,51.47
2023-05-04T06:51:00.068Z,52.16
2023-05-04T06:53:29.096Z,53.62
2023-05-04T06:55:55.678Z,53.52
2023-05-04T06:58:22.461Z,53.16
2023-05-04T07:00:49.371Z,52.69
2023-05-04T07:03:16.228Z,53.22
2023-05-04T07:05:44.749Z,51.50
2023-05-04T07:08:12.335Z,51.39
2023-05-04T07:10:38.885Z,51.34
2023-05-04T07:13:06.230Z,50.03
2023-05-04T07:15:33.861Z,49.15
2023-05-04T07:18:01.176Z,49.71
2023-05-04T07:20:28.175Z,47.87
2023-05-04T07:22:58.237Z,45.72
2023-05-04T07:25:25.602Z,45.70
2023-05-04T07:27:52.812Z,45.36
2023-05-04T07:30:20.239Z,42.46
2023-05-04T07:32:46.813Z,42.67
2023-05-04T07:35:13.532Z,42.73
2023-05-04T07:37:40.214Z,41.65
2023-05-04T07:40:07.611Z,39.87
2023-05-04T07:42:34.544Z,38.60
2023-05-04T07:45:01.238Z,38.90
2023-05-04T07:47:27.906Z,40.08
2023-05-04T07:49:54.674Z,40.43
2023-05-04T07:52:21.332Z,40.25
2023-05-04T07:54:51.372Z,42.16
2023-05-04T07:57:17.908Z,41.33
2023-05-04T07:59:44.445Z,40.89
2023-05-04T08:02:11.540Z,40.64
2023-05-04T08:04:38.217Z,40.46
2023-05-04T08:07:04.777Z,41.74
2023-05-04T08:09:31.368Z,42.19
2023-05-04T08:11:58.239Z,43.61
2023-05-04T08:14:24.911Z,44.84
2023-05-04T08:16:51.498Z,42.42
2023-05-04T08:19:19.089Z,41.59
2023-05-04T08:21:45.645Z,43.56
2023-05-04T08:24:12.558Z,44.23
2023-05-04T08:26:39.506Z,43.32
2023-05-04T08:29:07.882Z,44.99
2023-05-04T08:31:34.507Z,44.46
2023-05-04T08:34:01.503Z,45.31
2023-05-04T08:36:28.181Z,45.68
2023-05-04T08:38:54.753Z,44.73
2023-05-04T08:41:23.258Z,44.47
2023-05-04T08:43:50.406Z,44.14
2023-05-04T08:46:17.552Z,45.55
2023-05-04T08:48:44.883Z,46.08
2023-05-04T08:51:11.903Z,45.19
2023-05-04T08:53:42.955Z,45.23
2023-05-04T08:56:12.574Z,46.27
2023-05-04T08:58:52.609Z,46.12
2023-05-04T09:01:21.874Z,44.54
2023-05-04T09:03:49.153Z,44.67
2023-05-04T09:06:16.170Z,43.97
2023-05-04T09:08:42.987Z,43.35
2023-05-04T09:11:09.621Z,44.48
2023-05-04T09:13:36.978Z,44.16
2023-05-04T09:16:04.022Z,43.61
2023-05-04T09:18:41.207Z,46.04
2023-05-04T09:21:08.167Z,42.84
2023-05-04T09:23:46.152Z,46.20
2023-05-04T09:26:12.842Z,44.69
2023-05-04T09:28:39.548Z,44.60
2023-05-04T09:31:07.420Z,44.45
2023-05-04T09:33:34.791Z,45.08
2023-05-04T09:36:14.377Z,46.20
2023-05-04T09:38:41.274Z,45.05
2023-05-04T09:41:07.916Z,46.57
2023-05-04T09:43:38.776Z,45.64
2023-05-04T09:46:06.091Z,45.20
2023-05-04T09:48:32.678Z,46.33
2023-05-04T09:51:00.978Z,46.98
2023-05-04T09:53:29.065Z,43.88
2023-05-04T09:56:19.815Z,45.31
2023-05-04T09:58:47.481Z,45.92
2023-05-04T10:01:14.117Z,45.91
2023-05-04T10:03:41.177Z,43.93
2023-05-04T10:06:08.941Z,44.62
2023-05-04T10:08:35.958Z,46.64
2023-05-04T10:11:02.524Z,46.23
2023-05-04T10:13:29.149Z,43.71
2023-05-04T10:16:24.465Z,46.35
2023-05-04T10:19:19.139Z,45.70
2023-05-04T10:21:54.566Z,44.58
2023-05-04T10:24:48.456Z,44.11
2023-05-04T10:27:18.793Z,45.21
2023-05-04T10:29:50.613Z,47.30
2023-05-04T10:32:22.067Z,45.30
2023-05-04T10:34:49.442Z,46.77
2023-05-04T10:37:18.464Z,46.73
2023-05-04T10:39:53.458Z,44.62
2023-05-04T10:42:20.474Z,44.73
2023-05-04T10:44:55.397Z,43.52
2023-05-04T10:47:36.813Z,45.53
2023-05-04T10:50:07.279Z,45.36
2023-05-04T10:52:55.221Z,44.48
2023-05-04T10:55:22.407Z,43.49
2023-05-04T10:57:55.911Z,42.74
2023-05-04T11:00:24.339Z,42.28
2023-05-04T11:02:50.981Z,41.60
2023-05-04T11:05:19.889Z,42.46
2023-05-04T11:07:50.568Z,43.71
2023-05-04T11:10:27.037Z,43.61
2023-05-04T11:12:55.665Z,42.12
2023-05-04T11:15:22.429Z,41.87
2023-05-04T11:17:51.500Z,40.09
2023-05-04T11:20:26.275Z,41.72
2023-05-04T11:22:54.178Z,43.94
2023-05-04T11:25:28.380Z,44.61
2023-05-04T11:27:55.025Z,43.13
2023-05-04T11:30:22.072Z,42.05
2023-05-04T11:32:53.964Z,41.54
2023-05-04T11:35:22.796Z,42.15
2023-05-04T11:37:50.528Z,41.22
2023-05-04T11:40:19.771Z,41.73
2023-05-04T11:42:47.096Z,42.44
2023-05-04T11:45:17.788Z,40.51
2023-05-04T11:47:45.491Z,40.90
2023-05-04T11:50:14.324Z,39.85
2023-05-04T11:52:41.672Z,39.24
2023-05-04T11:55:10.075Z,39.86
2023-05-04T11:57:37.629Z,39.76
2023-05-04T12:00:05.200Z,38.10
2023-05-04T12:02:32.462Z,40.18
2023-05-04T12:04:59.279Z,39.56
2023-05-04T12:07:26.175Z,39.32
2023-05-04T12:09:52.647Z,37.75
2023-05-04T12:12:21.134Z,39.71
2023-05-04T12:14:50.615Z,40.45
2023-05-04T12:17:20.330Z,39.32
2023-05-04T12:19:57.238Z,37.22
2023-05-04T12:22:28.720Z,34.67
2023-05-04T12:24:59.677Z,37.93
2023-05-04T12:27:27.275Z,38.95
2023-05-04T12:29:53.929Z,38.18
2023-05-04T12:32:21.332Z,38.16
2023-05-04T12:34:47.867Z,38.90
2023-05-04T12:37:14.413Z,41.69
2023-05-04T12:39:41.029Z,40.18
2023-05-04T12:42:07.583Z,39.47
2023-05-04T12:44:34.488Z,35.60
2023-05-04T12:47:01.383Z,35.49
2023-05-04T12:49:27.968Z,37.39
2023-05-04T12:51:54.513Z,35.84
2023-05-04T12:54:21.101Z,35.52
2023-05-04T12:56:47.675Z,39.02
2023-05-04T12:59:14.174Z,39.00
2023-05-04T13:01:41.473Z,32.58
2023-05-04T13:04:08.132Z,32.89
2023-05-04T13:06:34.872Z,35.11
2023-05-04T13:09:05.739Z,33.46
2023-05-04T13:11:32.586Z,35.63
2023-05-04T13:13:59.145Z,34.81
2023-05-04T13:16:27.867Z,34.21
2023-05-04T13:18:55.418Z,34.37
2023-05-04T13:21:22.059Z,35.76
2023-05-04T13:23:48.613Z,36.97
2023-05-04T13:26:15.233Z,35.44
2023-05-04T13:28:41.842Z,37.04
2023-05-04T13:31:09.660Z,36.98
2023-05-04T13:33:39.093Z,35.72
2023-05-04T13:36:06.878Z,35.59
2023-05-04T13:38:33.586Z,35.99
2023-05-04T13:41:00.194Z,35.28
2023-05-04T13:43:28.528Z,37.37
2023-05-04T13:45:57.141Z,38.60
2023-05-04T13:48:25.559Z,35.19
2023-05-04T13:50:52.513Z,35.33
2023-05-04T13:53:19.008Z,34.75
2023-05-04T13:55:45.557Z,34.46
2023-05-04T13:58:12.046Z,35.95
2023-05-04T14:00:38.627Z,36.42
2023-05-04T14:03:05.309Z,34.85
2023-05-04T14:05:32.017Z,34.50
2023-05-04T14:07:58.499Z,35.17
2023-05-04T14:10:25.066Z,33.70
2023-05-04T14:12:51.696Z,35.22
2023-05-04T14:15:22.256Z,33.16
2023-05-04T14:17:49.741Z,36.49
2023-05-04T14:20:16.292Z,36.06
2023-05-04T14:22:43.225Z,34.74
2023-05-04T14:25:09.991Z,35.95
2023-05-04T14:27:36.561Z,36.50
2023-05-04T14:30:04.090Z,37.36
2023-05-04T14:32:30.710Z,35.64
2023-05-04T14:35:10.986Z,37.71
2023-05-04T14:37:39.173Z,37.88
2023-05-04T14:40:12.234Z,37.53
2023-05-04T14:42:39.097Z,38.18
2023-05-04T14:45:07.315Z,38.99
2023-05-04T14:47:34.554Z,38.70
2023-05-04T14:50:04.229Z,38.83
2023-05-04T14:52:31.075Z,37.44
2023-05-04T14:54:57.598Z,37.04
2023-05-04T14:57:24.147Z,39.80
2023-05-04T14:59:51.078Z,38.33
2023-05-04T15:02:18.592Z,36.84
2023-05-04T15:04:46.718Z,38.18
2023-05-04T15:07:15.795Z,37.96
2023-05-04T15:09:42.308Z,38.36
2023-05-04T15:12:09.510Z,37.88
2023-05-04T15:14:36.395Z,39.76
2023-05-04T15:17:04.209Z,38.07
2023-05-04T15:19:30.897Z,36.21
2023-05-04T15:21:57.404Z,38.28
2023-05-04T15:24:23.928Z,36.91
2023-05-04T15:26:50.466Z,36.04
2023-05-04T15:29:16.944Z,37.19
2023-05-04T15:31:43.914Z,37.60
2023-05-04T15:34:10.673Z,36.20
2023-05-04T15:36:37.264Z,36.16
2023-05-04T15:39:05.423Z,36.84
2023-05-04T15:41:32.017Z,35.88
2023-05-04T15:43:58.764Z,36.35
2023-05-04T15:46:25.778Z,35.72
2023-05-04T15:48:52.319Z,38.44
2023-05-04T15:51:18.893Z,37.37
2023-05-04T15:53:45.467Z,38.33
2023-05-04T15:56:13.224Z,39.40
2023-05-04T15:58:39.702Z,38.25
2023-05-04T16:01:09.193Z,38.44
2023-05-04T16:03:37.273Z,37.50
2023-05-04T16:06:05.466Z,37.31
2023-05-04T16:08:32.135Z,38.71
2023-05-04T16:10:58.612Z,39.51
2023-05-04T16:13:25.265Z,39.14
2023-05-04T16:15:52.852Z,38.21
2023-05-04T16:18:19.752Z,37.77
2023-05-04T16:20:47.375Z,37.46
2023-05-04T16:23:15.679Z,37.52
2023-05-04T16:25:43.213Z,38.82
2023-05-04T16:28:10.210Z,37.97
2023-05-04T16:30:37.387Z,38.76
2023-05-04T16:33:04.510Z,38.10
2023-05-04T16:35:31.762Z,36.55
2023-05-04T16:37:59.155Z,38.10
2023-05-04T16:40:26.410Z,37.94
2023-05-04T16:42:52.961Z,38.57
2023-05-04T16:45:19.637Z,38.34
2023-05-04T16:47:46.409Z,37.57
2023-05-04T16:50:14.330Z,38.20
2023-05-04T16:52:41.248Z,38.11
2023-05-04T16:55:11.584Z,39.42
2023-05-04T16:57:39.329Z,38.91
2023-05-04T17:00:07.267Z,38.39
2023-05-04T17:02:34.881Z,38.72
2023-05-04T17:05:01.903Z,37.94
2023-05-04T17:07:28.725Z,38.90
2023-05-04T17:09:55.356Z,37.72
2023-05-04T17:12:23.160Z,39.34
2023-05-04T17:14:49.773Z,38.48
2023-05-04T17:17:16.491Z,38.96
2023-05-04T17:19:43.059Z,37.72
2023-05-04T17:22:11.014Z,37.69
2023-05-04T17:24:37.584Z,38.44
2023-05-04T17:27:04.504Z,39.91
2023-05-04T17:29:31.237Z,39.76
2023-05-04T17:31:57.864Z,39.83
2023-05-04T17:34:24.449Z,39.14
2023-05-04T17:36:51.050Z,39.17
2023-05-04T17:39:18.657Z,38.71
2023-05-04T17:41:48.721Z,39.40
2023-05-04T17:44:16.274Z,38.71
2023-05-04T17:46:43.449Z,38.97
2023-05-04T17:49:10.191Z,39.43
2023-05-04T17:51:36.746Z,39.31
2023-05-04T17:54:03.400Z,39.39
2023-05-04T17:56:29.889Z,39.74
2023-05-04T17:58:56.597Z,39.46
2023-05-04T18:01:23.139Z,40.34
2023-05-04T18:03:50.001Z,40.01
2023-05-04T18:06:16.701Z,39.75
2023-05-04T18:08:43.330Z,39.96
2023-05-04T18:11:09.899Z,40.44
2023-05-04T18:13:36.461Z,40.25
2023-05-04T18:16:03.185Z,39.49
2023-05-04T18:18:29.798Z,39.58
2023-05-04T18:21:00.597Z,39.06
2023-05-04T18:23:27.200Z,39.02
2023-05-04T18:25:53.708Z,39.58
2023-05-04T18:28:20.409Z,39.62
2023-05-04T18:30:46.903Z,39.20
2023-05-04T18:33:13.502Z,38.62
2023-05-04T18:35:40.042Z,39.55
2023-05-04T18:38:07.181Z,39.04
2023-05-04T18:40:33.838Z,39.57
2023-05-04T18:43:00.413Z,38.76
2023-05-04T18:45:27.731Z,38.60
2023-05-04T18:47:54.312Z,38.57
2023-05-04T18:50:20.872Z,38.82
2023-05-04T18:52:47.414Z,38.73
2023-05-04T18:55:13.906Z,39.41
2023-05-04T18:57:40.465Z,38.97
2023-05-04T19:00:08.946Z,38.93
2023-05-04T19:02:36.614Z,38.13
2023-05-04T19:05:03.177Z,38.09
2023-05-04T19:07:29.694Z,39.78
2023-05-04T19:09:56.268Z,39.32
2023-05-04T19:12:22.876Z,38.92
2023-05-04T19:14:50.397Z,39.05
2023-05-04T19:17:18.180Z,41.02
2023-05-04T19:19:44.809Z,39.35
2023-05-04T19:22:13.102Z,38.83
2023-05-04T19:24:39.876Z,40.04
2023-05-04T19:27:07.896Z,40.30
2023-05-04T19:29:34.437Z,39.61
2023-05-04T19:32:05.691Z,41.38
2023-05-04T19:34:42.730Z,41.11
2023-05-04T19:37:09.391Z,41.16
2023-05-04T19:39:36.510Z,40.20
2023-05-04T19:42:03.239Z,39.47
2023-05-04T19:44:29.735Z,39.32
2023-05-04T19:46:56.348Z,40.84
2023-05-04T19:49:24.789Z,39.19
2023-05-04T19:51:51.338Z,39.44
2023-05-04T19:54:17.932Z,39.89
2023-05-04T19:56:44.472Z,41.27
2023-05-04T19:59:11.188Z,40.50
2023-05-04T20:01:37.756Z,40.94
2023-05-04T20:04:05.837Z,40.58
2023-05-04T20:06:32.510Z,41.28
2023-05-04T20:08:59.115Z,41.78
2023-05-04T20:11:25.770Z,40.85
2023-05-04T20:13:54.104Z,41.41
2023-05-04T20:16:22.088Z,40.84
2023-05-04T20:18:49.021Z,41.03
2023-05-04T20:21:15.621Z,41.58
2023-05-04T20:23:42.190Z,41.92
2023-05-04T20:26:08.776Z,43.02
2023-05-04T20:28:35.314Z,42.77
2023-05-04T20:31:01.856Z,42.57
2023-05-04T20:33:28.413Z,42.33
2023-05-04T20:35:54.970Z,42.91
2023-05-04T20:38:21.489Z,41.45
2023-05-04T20:40:48.131Z,40.33
2023-05-04T20:43:15.211Z,41.10
2023-05-04T20:45:41.894Z,39.62
2023-05-04T20:48:08.376Z,39.59
2023-05-04T20:50:35.145Z,38.84
2023-05-04T20:53:02.037Z,38.55
2023-05-04T20:55:28.711Z,38.17
2023-05-04T20:57:55.257Z,37.83
2023-05-04T21:00:21.844Z,37.48
2023-05-04T21:02:48.656Z,37.53
2023-05-04T21:05:15.453Z,37.50
2023-05-04T21:07:41.948Z,37.47
2023-05-04T21:10:09.272Z,37.40
2023-05-04T21:12:36.295Z,36.98
2023-05-04T21:15:02.936Z,36.34
2023-05-04T21:17:29.459Z,36.71
2023-05-04T21:19:56.465Z,37.13
2023-05-04T21:22:23.031Z,36.72
2023-05-04T21:24:49.627Z,36.85
2023-05-04T21:27:16.111Z,36.16
2023-05-04T21:29:42.617Z,36.23
2023-05-04T21:32:09.232Z,36.04
2023-05-04T21:34:35.817Z,36.17
2023-05-04T21:37:03.614Z,35.63
2023-05-04T21:39:30.267Z,35.90
2023-05-04T21:41:56.942Z,36.15
2023-05-04T21:44:23.586Z,36.43
2023-05-04T21:46:50.343Z,35.84
2023-05-04T21:49:16.998Z,35.88
2023-05-04T21:51:43.563Z,35.84
2023-05-04T21:54:10.235Z,36.37
2023-05-04T21:56:37.057Z,36.36
2023-05-04T21:59:03.631Z,36.53
2023-05-04T22:01:30.344Z,36.35
2023-05-04T22:03:57.056Z,36.85
2023-05-04T22:06:24.391Z,36.87
2023-05-04T22:08:51.121Z,36.56
2023-05-04T22:11:17.640Z,36.00
2023-05-04T22:13:44.190Z,35.83
2023-05-04T22:16:10.929Z,35.65
2023-05-04T22:18:37.848Z,35.59
2023-05-04T22:21:04.371Z,35.69
2023-05-04T22:23:30.945Z,36.30
2023-05-04T22:25:57.497Z,35.51
2023-05-04T22:28:24.077Z,36.16
2023-05-04T22:30:50.631Z,35.84
2023-05-04T22:33:17.351Z,36.40
2023-05-04T22:35:43.821Z,36.58
2023-05-04T22:38:11.812Z,36.64
2023-05-04T22:40:40.426Z,36.13
2023-05-04T22:43:07.490Z,36.27
2023-05-04T22:45:38.265Z,36.74
2023-05-04T22:48:05.076Z,36.43
2023-05-04T22:50:31.653Z,36.79
2023-05-04T22:52:58.306Z,36.18
2023-05-04T22:55:25.049Z,36.75
2023-05-04T22:57:51.695Z,36.63
2023-05-04T23:00:18.555Z,36.30
2023-05-04T23:02:45.169Z,36.88
2023-05-04T23:05:11.752Z,36.40
2023-05-04T23:07:38.624Z,36.84
2023-05-04T23:10:05.895Z,36.87
2023-05-04T23:12:32.646Z,35.97
2023-05-04T23:14:59.256Z,35.87
2023-05-04T23:17:25.849Z,36.43
2023-05-04T23:19:52.388Z,37.24
2023-05-04T23:22:18.950Z,36.64
2023-05-04T23:24:45.428Z,36.47
2023-05-04T23:27:12.281Z,36.67
2023-05-04T23:29:38.978Z,36.72
2023-05-04T23:32:06.205Z,36.86
2023-05-04T23:34:32.776Z,36.67
2023-05-04T23:36:59.371Z,37.07
2023-05-04T23:39:26.057Z,36.82
2023-05-04T23:41:53.588Z,36.45
2023-05-04T23:44:21.124Z,36.47
2023-05-04T23:46:47.777Z,36.75
2023-05-04T23:49:14.272Z,37.05
2023-05-04T23:51:40.888Z,36.41
2023-05-04T23:54:07.359Z,36.37
2023-05-04T23:56:33.900Z,36.85
2023-05-04T23:59:00.461Z,37.40
